createdAt,value
2018-08-22T00:01:03.890Z,76.83
2018-08-22T00:03:33.351Z,76.33
2018-08-22T00:06:02.809Z,77.39
2018-08-22T00:08:37.640Z,77.76
2018-08-22T00:11:07.037Z,78.02
2018-08-22T00:13:36.882Z,76.94
2018-08-22T00:16:06.637Z,77.86
2018-08-22T00:18:36.875Z,77.82
2018-08-22T00:21:06.913Z,77.69
2018-08-22T00:23:37.772Z,78.70
2018-08-22T00:26:07.188Z,78.58
2018-08-22T00:28:36.908Z,79.23
2018-08-22T00:31:06.334Z,78.92
2018-08-22T00:33:35.777Z,78.46
2018-08-22T00:36:05.169Z,77.84
2018-08-22T00:38:35.476Z,78.12
2018-08-22T00:41:05.501Z,79.88
2018-08-22T00:43:35.380Z,78.56
2018-08-22T00:46:04.792Z,79.16
2018-08-22T00:48:34.200Z,78.24
2018-08-22T00:51:05.780Z,78.94
2018-08-22T00:53:35.199Z,78.09
2018-08-22T00:56:04.653Z,78.11
2018-08-22T00:58:34.074Z,78.72
2018-08-22T01:01:03.940Z,79.34
2018-08-22T01:03:33.356Z,79.54
2018-08-22T01:06:02.741Z,80.16
2018-08-22T01:08:33.344Z,79.97
2018-08-22T01:11:03.256Z,79.31
2018-08-22T01:13:32.664Z,79.55
2018-08-22T01:16:02.120Z,79.53
2018-08-22T01:18:31.523Z,79.30
2018-08-22T01:21:01.277Z,79.01
2018-08-22T01:23:30.643Z,78.62
2018-08-22T01:26:00.044Z,78.92
2018-08-22T01:28:29.987Z,79.35
2018-08-22T01:30:59.360Z,79.54
2018-08-22T01:33:36.064Z,79.55
2018-08-22T01:36:05.460Z,80.20
2018-08-22T01:38:34.876Z,79.46
2018-08-22T01:41:04.780Z,79.18
2018-08-22T01:43:34.160Z,80.13
2018-08-22T01:46:03.567Z,79.28
2018-08-22T01:48:32.994Z,80.09
2018-08-22T01:51:02.819Z,79.90
2018-08-22T01:53:32.223Z,80.54
2018-08-22T01:56:01.630Z,79.89
2018-08-22T01:58:31.053Z,80.23
2018-08-22T02:01:00.429Z,79.92
2018-08-22T02:03:30.370Z,80.12
2018-08-22T02:05:59.795Z,80.70
2018-08-22T02:08:29.280Z,81.54
2018-08-22T02:10:58.700Z,81.83
2018-08-22T02:13:28.429Z,82.03
2018-08-22T02:15:57.812Z,81.50
2018-08-22T02:18:27.200Z,81.60
2018-08-22T02:20:58.840Z,81.52
2018-08-22T02:23:28.274Z,81.85
2018-08-22T02:25:57.685Z,80.75
2018-08-22T02:28:27.079Z,81.34
2018-08-22T02:30:56.854Z,81.45
2018-08-22T02:33:26.335Z,81.91
2018-08-22T02:35:55.754Z,80.99
2018-08-22T02:38:26.223Z,80.94
2018-08-22T02:40:57.925Z,80.80
2018-08-22T02:43:27.386Z,81.07
2018-08-22T02:45:56.847Z,80.73
2018-08-22T02:48:26.238Z,81.95
2018-08-22T02:50:56.319Z,80.99
2018-08-22T02:53:25.712Z,82.04
2018-08-22T02:55:55.164Z,81.58
2018-08-22T02:58:27.069Z,82.17
2018-08-22T03:00:56.879Z,81.36
2018-08-22T03:03:28.194Z,81.83
2018-08-22T03:05:59.238Z,82.00
2018-08-22T03:08:29.247Z,81.42
2018-08-22T03:10:58.646Z,82.07
2018-08-22T03:13:29.842Z,81.79
2018-08-22T03:15:59.587Z,82.56
2018-08-22T03:18:28.961Z,82.49
2018-08-22T03:20:58.834Z,82.59
2018-08-22T03:23:28.224Z,81.54
2018-08-22T03:25:57.612Z,82.43
2018-08-22T03:28:27.020Z,82.45
2018-08-22T03:30:56.891Z,82.60
2018-08-22T03:33:26.283Z,82.90
2018-08-22T03:35:56.198Z,81.63
2018-08-22T03:38:25.619Z,82.91
2018-08-22T03:40:55.030Z,81.95
2018-08-22T03:43:25.655Z,82.73
2018-08-22T03:45:55.653Z,83.17
2018-08-22T03:48:25.018Z,83.10
2018-08-22T03:50:56.174Z,82.22
2018-08-22T03:53:25.625Z,81.49
2018-08-22T03:55:55.395Z,82.48
2018-08-22T03:58:24.787Z,82.48
2018-08-22T04:00:54.515Z,82.65
2018-08-22T04:03:23.919Z,82.46
2018-08-22T04:05:53.304Z,83.11
2018-08-22T04:08:22.720Z,82.41
2018-08-22T04:10:52.454Z,82.88
2018-08-22T04:13:21.883Z,83.22
2018-08-22T04:15:51.594Z,82.59
2018-08-22T04:18:21.016Z,82.96
2018-08-22T04:20:50.504Z,82.53
2018-08-22T04:23:20.507Z,83.23
2018-08-22T04:26:01.495Z,82.63
2018-08-22T04:28:31.143Z,83.36
2018-08-22T04:31:00.597Z,82.70
2018-08-22T04:33:30.962Z,81.79
2018-08-22T04:36:00.361Z,82.80
2018-08-22T04:38:30.321Z,82.93
2018-08-22T04:41:00.828Z,82.80
2018-08-22T04:43:30.226Z,83.64
2018-08-22T04:45:59.911Z,82.65
2018-08-22T04:48:29.317Z,83.25
2018-08-22T04:50:58.773Z,82.81
2018-08-22T04:53:28.195Z,83.20
2018-08-22T04:55:57.755Z,83.11
2018-08-22T04:58:27.959Z,83.73
2018-08-22T05:00:57.380Z,83.10
2018-08-22T05:03:26.805Z,83.35
2018-08-22T05:05:56.213Z,83.93
2018-08-22T05:08:27.223Z,84.21
2018-08-22T05:10:56.603Z,83.39
2018-08-22T05:13:26.009Z,83.25
2018-08-22T05:15:55.865Z,82.84
2018-08-22T05:18:25.268Z,83.44
2018-08-22T05:20:55.655Z,83.49
2018-08-22T05:23:26.083Z,84.02
2018-08-22T05:25:55.511Z,83.45
2018-08-22T05:28:25.734Z,84.38
2018-08-22T05:31:06.244Z,83.95
2018-08-22T05:33:35.619Z,84.10
2018-08-22T05:36:05.068Z,83.61
2018-08-22T05:38:34.853Z,83.16
2018-08-22T05:41:04.281Z,83.53
2018-08-22T05:43:33.791Z,83.41
2018-08-22T05:46:04.212Z,82.68
2018-08-22T05:48:33.631Z,83.13
2018-08-22T05:51:03.067Z,81.98
2018-08-22T05:53:32.461Z,81.62
2018-08-22T05:59:34.122Z,80.62
2018-08-22T06:02:03.576Z,80.79
2018-08-22T06:04:33.624Z,79.47
2018-08-22T06:07:03.547Z,79.11
2018-08-22T06:09:32.983Z,78.83
2018-08-22T06:12:03.035Z,78.56
2018-08-22T06:14:33.390Z,77.47
2018-08-22T06:17:05.135Z,78.65
2018-08-22T06:19:34.504Z,77.96
2018-08-22T06:28:49.365Z,75.07
2018-08-22T06:31:18.831Z,74.84
2018-08-22T06:33:50.210Z,74.82
2018-08-22T06:36:19.635Z,73.05
2018-08-22T06:38:49.944Z,73.25
2018-08-22T06:41:20.702Z,71.63
2018-08-22T06:43:50.106Z,70.66
2018-08-22T06:46:20.030Z,69.79
2018-08-22T06:48:49.465Z,70.04
2018-08-22T06:51:18.873Z,68.12
2018-08-22T06:53:48.629Z,66.53
2018-08-22T06:56:18.003Z,67.21
2018-08-22T06:58:47.573Z,66.18
2018-08-22T07:01:17.001Z,67.34
2018-08-22T07:03:46.838Z,65.78
2018-08-22T07:06:16.223Z,64.59
2018-08-22T07:08:45.621Z,63.55
2018-08-22T07:11:15.973Z,62.48
2018-08-22T07:13:45.343Z,62.19
2018-08-22T07:16:15.046Z,61.64
2018-08-22T07:18:44.442Z,61.21
2018-08-22T07:21:13.961Z,61.23
2018-08-22T07:23:43.666Z,62.14
2018-08-22T07:26:13.115Z,60.57
2018-08-22T07:28:44.462Z,59.55
2018-08-22T07:31:14.120Z,60.03
2018-08-22T07:33:44.237Z,57.30
2018-08-22T07:36:14.349Z,59.90
2018-08-22T07:38:43.800Z,59.31
2018-08-22T07:41:13.219Z,58.16
2018-08-22T07:43:42.917Z,57.76
2018-08-22T07:46:14.122Z,58.31
2018-08-22T07:48:45.120Z,57.78
2018-08-22T07:54:48.638Z,55.92
2018-08-22T07:57:21.275Z,56.93
2018-08-22T07:59:52.127Z,57.53
2018-08-22T08:02:21.577Z,55.02
2018-08-22T08:04:51.442Z,53.89
2018-08-22T08:07:20.845Z,56.14
2018-08-22T08:09:50.256Z,56.17
2018-08-22T08:12:23.347Z,55.03
2018-08-22T08:14:57.774Z,54.98
2018-08-22T08:17:27.296Z,54.11
2018-08-22T08:19:56.700Z,55.16
2018-08-22T08:22:26.557Z,54.44
2018-08-22T08:24:55.943Z,54.12
2018-08-22T08:27:26.042Z,53.66
2018-08-22T08:29:55.446Z,52.78
2018-08-22T08:32:25.352Z,54.62
2018-08-22T08:34:55.976Z,52.37
2018-08-22T08:37:25.473Z,52.37
2018-08-22T08:39:55.033Z,52.81
2018-08-22T08:42:24.518Z,53.00
2018-08-22T08:44:53.912Z,52.24
2018-08-22T08:47:25.654Z,51.28
2018-08-22T08:49:55.395Z,52.30
2018-08-22T08:52:24.833Z,51.88
2018-08-22T08:54:55.357Z,51.27
2018-08-22T08:57:24.939Z,51.41
2018-08-22T08:59:56.832Z,52.94
2018-08-22T09:02:27.067Z,52.48
2018-08-22T09:04:56.933Z,52.50
2018-08-22T09:07:26.893Z,50.96
2018-08-22T09:09:56.327Z,51.65
2018-08-22T09:12:27.129Z,51.20
2018-08-22T09:14:57.578Z,50.85
2018-08-22T09:17:28.733Z,51.78
2018-08-22T09:19:58.196Z,51.49
2018-08-22T09:22:27.672Z,49.94
2018-08-22T09:24:58.586Z,49.36
2018-08-22T09:27:28.283Z,48.76
2018-08-22T09:29:58.591Z,47.88
2018-08-22T09:32:28.634Z,47.28
2018-08-22T09:34:59.947Z,47.74
2018-08-22T09:37:31.802Z,47.21
2018-08-22T09:40:02.692Z,47.19
2018-08-22T09:42:33.075Z,47.48
2018-08-22T09:45:03.870Z,46.79
2018-08-22T09:47:35.971Z,46.42
2018-08-22T09:50:06.274Z,46.89
2018-08-22T09:52:35.893Z,45.17
2018-08-22T09:55:07.225Z,45.93
2018-08-22T09:57:37.381Z,45.97
2018-08-22T10:00:08.918Z,43.30
2018-08-22T10:02:38.944Z,44.17
2018-08-22T10:05:10.100Z,42.79
2018-08-22T10:07:39.459Z,41.97
2018-08-22T10:10:10.021Z,41.99
2018-08-22T10:12:40.427Z,43.27
2018-08-22T10:15:09.858Z,41.94
2018-08-22T10:17:39.266Z,42.06
2018-08-22T10:20:10.630Z,41.62
2018-08-22T10:22:40.066Z,42.10
2018-08-22T10:25:11.054Z,41.23
2018-08-22T10:27:41.455Z,40.41
2018-08-22T10:30:14.857Z,41.35
2018-08-22T10:32:44.545Z,40.53
2018-08-22T10:35:16.444Z,41.51
2018-08-22T10:37:45.891Z,41.27
2018-08-22T10:40:16.584Z,39.63
2018-08-22T10:42:46.895Z,39.46
2018-08-22T10:45:21.843Z,39.74
2018-08-22T10:47:52.040Z,38.97
2018-08-22T10:50:22.121Z,38.39
2018-08-22T10:52:51.814Z,36.80
2018-08-22T10:55:23.645Z,36.73
2018-08-22T10:57:53.756Z,35.71
2018-08-22T11:00:23.669Z,35.39
2018-08-22T11:02:56.082Z,35.85
2018-08-22T11:05:25.541Z,35.74
2018-08-22T11:08:03.595Z,36.21
2018-08-22T11:10:33.094Z,36.21
2018-08-22T11:13:03.470Z,36.03
2018-08-22T11:15:33.435Z,35.33
2018-08-22T11:18:03.727Z,36.27
2018-08-22T11:20:39.431Z,37.31
2018-08-22T11:23:20.508Z,35.22
2018-08-22T11:26:00.910Z,35.24
2018-08-22T11:28:42.427Z,35.31
2018-08-22T11:31:22.846Z,34.86
2018-08-22T11:34:04.203Z,36.01
2018-08-22T11:36:33.346Z,35.86
2018-08-22T11:39:04.481Z,35.18
2018-08-22T11:41:36.601Z,34.88
2018-08-22T11:44:09.422Z,34.06
2018-08-22T11:46:39.393Z,35.11
2018-08-22T11:49:10.627Z,35.05
2018-08-22T11:51:40.058Z,35.33
2018-08-22T11:54:09.705Z,35.90
2018-08-22T11:56:39.155Z,35.81
2018-08-22T11:59:08.956Z,35.65
2018-08-22T12:01:39.326Z,34.70
2018-08-22T12:04:09.826Z,33.91
2018-08-22T12:06:39.336Z,35.67
2018-08-22T12:09:15.313Z,36.56
2018-08-22T12:11:45.173Z,36.50
2018-08-22T12:14:15.979Z,35.63
2018-08-22T12:16:46.807Z,36.23
2018-08-22T12:19:17.913Z,35.67
2018-08-22T12:21:50.357Z,34.08
2018-08-22T12:24:21.053Z,33.31
2018-08-22T12:26:51.471Z,33.34
2018-08-22T12:29:21.706Z,35.17
2018-08-22T12:31:53.054Z,35.63
2018-08-22T12:34:23.415Z,35.33
2018-08-22T12:36:52.878Z,34.44
2018-08-22T12:39:40.827Z,33.79
2018-08-22T12:42:24.175Z,34.80
2018-08-22T12:44:57.242Z,35.17
2018-08-22T12:47:26.650Z,34.89
2018-08-22T12:49:58.327Z,34.50
2018-08-22T12:52:28.335Z,33.91
2018-08-22T12:54:57.809Z,34.62
2018-08-22T12:57:34.027Z,34.34
2018-08-22T13:00:03.434Z,32.59
2018-08-22T13:02:32.830Z,32.32
2018-08-22T13:05:04.137Z,32.23
2018-08-22T13:07:33.579Z,33.21
2018-08-22T13:10:04.150Z,33.23
2018-08-22T13:12:34.131Z,33.98
2018-08-22T13:15:08.402Z,32.60
2018-08-22T13:17:38.610Z,32.16
2018-08-22T13:20:08.126Z,34.48
2018-08-22T13:22:37.550Z,33.82
2018-08-22T13:25:07.911Z,32.94
2018-08-22T13:27:37.343Z,34.27
2018-08-22T13:30:07.403Z,33.97
2018-08-22T13:32:43.100Z,34.91
2018-08-22T13:35:15.000Z,34.42
2018-08-22T13:37:45.443Z,33.36
2018-08-22T13:40:15.694Z,34.17
2018-08-22T13:42:45.093Z,33.38
2018-08-22T13:45:14.511Z,34.38
2018-08-22T13:47:45.580Z,32.96
2018-08-22T13:50:15.045Z,32.74
2018-08-22T13:52:46.897Z,33.72
2018-08-22T13:55:17.265Z,33.30
2018-08-22T13:57:47.369Z,33.50
2018-08-22T14:00:19.287Z,33.50
2018-08-22T14:02:48.714Z,32.95
2018-08-22T14:05:19.283Z,33.40
2018-08-22T14:07:52.064Z,34.40
2018-08-22T14:10:23.014Z,34.18
2018-08-22T14:12:52.651Z,33.99
2018-08-22T14:15:24.509Z,32.89
2018-08-22T14:17:53.940Z,32.20
2018-08-22T14:20:23.315Z,32.37
2018-08-22T14:22:52.676Z,31.87
2018-08-22T14:25:22.097Z,31.94
2018-08-22T14:27:52.686Z,32.01
2018-08-22T14:30:24.002Z,32.68
2018-08-22T14:32:53.767Z,32.28
2018-08-22T14:35:23.167Z,30.32
2018-08-22T14:37:53.990Z,30.40
2018-08-22T14:40:23.395Z,29.74
2018-08-22T14:42:56.125Z,30.66
2018-08-22T14:45:38.670Z,30.37
2018-08-22T14:48:08.131Z,30.75
2018-08-22T14:50:38.555Z,30.06
2018-08-22T14:53:10.314Z,30.86
2018-08-22T14:55:39.925Z,30.54
2018-08-22T14:58:09.812Z,32.06
2018-08-22T15:00:40.399Z,30.98
2018-08-22T15:03:15.878Z,31.48
2018-08-22T15:05:48.434Z,32.12
2018-08-22T15:08:24.376Z,31.37
2018-08-22T15:10:54.571Z,32.78
2018-08-22T15:13:24.067Z,31.54
2018-08-22T15:15:57.047Z,32.85
2018-08-22T15:18:26.477Z,31.44
2018-08-22T15:20:58.508Z,31.71
2018-08-22T15:23:30.909Z,32.33
2018-08-22T15:26:02.077Z,33.72
2018-08-22T15:28:31.509Z,32.66
2018-08-22T15:31:02.854Z,32.12
2018-08-22T15:33:32.534Z,32.96
2018-08-22T15:36:03.248Z,32.24
2018-08-22T15:38:34.743Z,32.25
2018-08-22T15:41:05.827Z,32.78
2018-08-22T15:43:38.299Z,32.54
2018-08-22T15:46:07.658Z,32.43
2018-08-22T15:48:38.834Z,33.08
2018-08-22T15:51:10.642Z,32.84
2018-08-22T15:53:41.534Z,33.25
2018-08-22T15:56:14.682Z,32.17
2018-08-22T15:58:44.566Z,32.98
2018-08-22T16:01:18.477Z,33.31
2018-08-22T16:03:49.295Z,32.72
2018-08-22T16:06:18.715Z,33.12
2018-08-22T16:08:49.468Z,31.78
2018-08-22T16:11:20.726Z,32.47
2018-08-22T16:13:50.985Z,32.15
2018-08-22T16:16:21.210Z,32.18
2018-08-22T16:18:52.593Z,33.52
2018-08-22T16:21:28.700Z,33.10
2018-08-22T16:23:58.161Z,32.38
2018-08-22T16:26:28.244Z,33.59
2018-08-22T16:29:02.747Z,33.07
2018-08-22T16:31:38.663Z,33.17
2018-08-22T16:34:10.500Z,34.02
2018-08-22T16:36:41.891Z,34.33
2018-08-22T16:39:14.272Z,34.36
2018-08-22T16:41:43.701Z,34.06
2018-08-22T16:44:15.064Z,34.38
2018-08-22T16:46:45.249Z,34.78
2018-08-22T16:49:19.081Z,35.70
2018-08-22T16:51:51.619Z,36.01
2018-08-22T16:54:24.050Z,34.78
2018-08-22T16:56:56.626Z,35.79
2018-08-22T16:59:26.642Z,36.25
2018-08-22T17:01:56.108Z,35.13
2018-08-22T17:04:27.013Z,35.89
2018-08-22T17:07:06.581Z,35.85
2018-08-22T17:09:37.945Z,35.49
2018-08-22T17:12:11.122Z,36.19
2018-08-22T17:14:40.481Z,36.40
2018-08-22T17:17:11.719Z,37.32
2018-08-22T17:19:42.391Z,36.70
2018-08-22T17:22:14.124Z,36.82
2018-08-22T17:24:44.057Z,37.66
2018-08-22T17:27:13.696Z,37.73
2018-08-22T17:29:45.676Z,38.07
2018-08-22T17:32:15.825Z,37.94
2018-08-22T17:34:45.300Z,38.51
2018-08-22T17:37:16.283Z,38.12
2018-08-22T17:39:45.792Z,37.50
2018-08-22T17:42:15.154Z,38.57
2018-08-22T17:44:45.429Z,38.45
2018-08-22T17:47:18.176Z,39.18
2018-08-22T17:50:18.584Z,38.69
2018-08-22T17:52:48.958Z,38.66
2018-08-22T17:55:18.538Z,39.53
2018-08-22T17:57:48.824Z,41.58
2018-08-22T18:00:19.591Z,39.39
2018-08-22T18:02:50.038Z,39.33
2018-08-22T18:05:21.802Z,40.31
2018-08-22T18:07:52.979Z,39.39
2018-08-22T18:10:22.676Z,40.81
2018-08-22T18:12:53.781Z,41.40
2018-08-22T18:15:27.905Z,41.18
2018-08-22T18:18:00.704Z,41.63
2018-08-22T18:20:31.631Z,42.69
2018-08-22T18:23:02.352Z,42.03
2018-08-22T18:25:31.738Z,43.36
2018-08-22T18:28:06.502Z,43.26
2018-08-22T18:30:37.223Z,44.48
2018-08-22T18:33:08.724Z,45.34
2018-08-22T18:35:49.302Z,44.36
2018-08-22T18:38:19.733Z,45.59
2018-08-22T18:41:00.513Z,46.00
2018-08-22T18:43:33.919Z,46.05
2018-08-22T18:46:08.268Z,46.19
2018-08-22T18:48:39.311Z,45.65
2018-08-22T18:51:14.461Z,47.81
2018-08-22T18:53:44.454Z,48.07
2018-08-22T18:56:18.380Z,47.32
2018-08-22T18:58:47.765Z,48.48
2018-08-22T19:01:20.864Z,47.85
2018-08-22T19:03:51.453Z,48.19
2018-08-22T19:06:24.614Z,48.49
2018-08-22T19:08:57.502Z,48.25
2018-08-22T19:11:27.884Z,49.09
2018-08-22T19:14:01.266Z,48.84
2018-08-22T19:16:49.096Z,49.64
2018-08-22T19:19:24.016Z,49.70
2018-08-22T19:21:59.210Z,49.53
2018-08-22T19:24:28.630Z,50.20
2018-08-22T19:26:59.795Z,49.72
2018-08-22T19:29:33.522Z,50.22
2018-08-22T19:32:02.942Z,50.73
2018-08-22T19:34:34.565Z,50.08
2018-08-22T19:37:04.537Z,50.40
2018-08-22T19:39:35.215Z,50.99
2018-08-22T19:42:06.834Z,52.35
2018-08-22T19:44:41.812Z,50.32
2018-08-22T19:47:12.062Z,51.00
2018-08-22T19:49:42.371Z,52.29
2018-08-22T19:52:15.323Z,51.68
2018-08-22T19:54:46.523Z,51.51
2018-08-22T19:57:22.277Z,51.24
2018-08-22T19:59:53.414Z,51.28
2018-08-22T20:02:27.774Z,52.60
2018-08-22T20:04:58.120Z,53.20
2018-08-22T20:07:30.285Z,53.92
2018-08-22T20:10:00.087Z,52.71
2018-08-22T20:12:40.867Z,53.27
2018-08-22T20:15:10.494Z,53.24
2018-08-22T20:17:43.507Z,53.25
2018-08-22T20:20:13.651Z,54.27
2018-08-22T20:22:47.192Z,54.89
2018-08-22T20:25:18.018Z,54.12
2018-08-22T20:27:49.880Z,54.27
2018-08-22T20:30:26.314Z,54.70
2018-08-22T20:33:00.815Z,54.61
2018-08-22T20:35:32.366Z,54.77
2018-08-22T20:38:09.387Z,54.47
2018-08-22T20:40:38.920Z,54.45
2018-08-22T20:43:17.989Z,55.62
2018-08-22T20:45:47.543Z,55.52
2018-08-22T20:48:21.747Z,55.62
2018-08-22T20:50:51.169Z,56.34
2018-08-22T20:53:21.718Z,56.39
2018-08-22T20:55:51.144Z,56.86
2018-08-22T20:58:25.173Z,56.85
2018-08-22T21:00:54.652Z,56.30
2018-08-22T21:03:24.444Z,57.41
2018-08-22T21:05:55.263Z,57.58
2018-08-22T21:08:26.218Z,57.25
2018-08-22T21:10:55.703Z,57.32
2018-08-22T21:13:29.756Z,58.16
2018-08-22T21:16:00.141Z,57.33
2018-08-22T21:18:31.635Z,57.79
2018-08-22T21:21:01.991Z,58.11
2018-08-22T21:23:32.262Z,57.54
2018-08-22T21:26:04.416Z,58.23
2018-08-22T21:28:39.590Z,58.38
2018-08-22T21:31:09.848Z,58.22
2018-08-22T21:33:39.230Z,58.19
2018-08-22T21:36:09.972Z,58.39
2018-08-22T21:38:40.527Z,59.16
2018-08-22T21:41:13.810Z,58.82
2018-08-22T21:43:47.541Z,58.93
2018-08-22T21:46:17.254Z,58.71
2018-08-22T21:48:47.162Z,58.10
2018-08-22T21:51:17.444Z,58.95
2018-08-22T21:53:48.110Z,60.45
2018-08-22T21:56:37.072Z,60.46
2018-08-22T21:59:06.614Z,61.02
2018-08-22T22:01:47.346Z,60.96
2018-08-22T22:04:21.214Z,60.22
2018-08-22T22:06:51.269Z,60.32
2018-08-22T22:09:21.746Z,60.51
2018-08-22T22:11:58.547Z,60.68
2018-08-22T22:14:31.666Z,61.48
2018-08-22T22:17:02.682Z,61.02
2018-08-22T22:19:39.472Z,61.70
2018-08-22T22:22:08.887Z,61.96
2018-08-22T22:24:52.743Z,61.41
2018-08-22T22:27:22.285Z,62.32
2018-08-22T22:29:58.280Z,62.63
2018-08-22T22:32:27.684Z,62.37
2018-08-22T22:34:58.829Z,62.33
2018-08-22T22:37:29.726Z,62.29
2018-08-22T22:40:02.828Z,63.31
2018-08-22T22:42:32.296Z,62.55
2018-08-22T22:45:02.898Z,62.41
2018-08-22T22:47:33.436Z,62.79
2018-08-22T22:50:05.454Z,61.88
2018-08-22T22:52:43.699Z,62.73
2018-08-22T22:55:14.274Z,62.56
2018-08-22T22:57:44.947Z,61.90
2018-08-22T23:00:15.660Z,62.76
2018-08-22T23:02:46.946Z,62.71
2018-08-22T23:05:16.873Z,62.79
2018-08-22T23:07:46.335Z,63.51
2018-08-22T23:10:16.143Z,63.35
2018-08-22T23:12:48.156Z,62.68
2018-08-22T23:15:23.533Z,63.10
2018-08-22T23:17:55.669Z,63.68
2018-08-22T23:20:49.493Z,64.16
2018-08-22T23:23:29.229Z,63.54
2018-08-22T23:26:05.966Z,63.35
2018-08-22T23:28:35.535Z,63.02
2018-08-22T23:31:05.699Z,62.72
2018-08-22T23:33:35.130Z,62.21
2018-08-22T23:36:05.859Z,62.12
2018-08-22T23:38:38.218Z,61.45
2018-08-22T23:41:07.662Z,60.43
2018-08-22T23:43:50.415Z,60.84
2018-08-22T23:46:19.930Z,61.08
2018-08-22T23:48:57.659Z,59.60
2018-08-22T23:51:29.093Z,60.14
2018-08-22T23:54:01.899Z,60.07
2018-08-22T23:56:33.051Z,59.30
2018-08-22T23:59:04.381Z,58.89
